createdAt,value
2019-05-19T00:00:07.738Z,0.00
2019-05-19T00:01:07.766Z,0.00
2019-05-19T00:02:07.711Z,0.00
2019-05-19T00:03:07.716Z,0.00
2019-05-19T00:04:07.763Z,0.00
2019-05-19T00:05:07.684Z,0.00
2019-05-19T00:06:07.677Z,0.00
2019-05-19T00:07:07.671Z,0.00
2019-05-19T00:08:07.655Z,0.00
2019-05-19T00:09:07.660Z,0.00
2019-05-19T00:10:07.643Z,0.00
2019-05-19T00:11:07.621Z,0.00
2019-05-19T00:12:07.619Z,0.00
2019-05-19T00:13:07.605Z,0.00
2019-05-19T00:14:07.620Z,0.00
2019-05-19T00:15:07.583Z,0.00
2019-05-19T00:16:07.568Z,0.00
2019-05-19T00:17:07.553Z,0.00
2019-05-19T00:18:07.547Z,0.00
2019-05-19T00:19:07.560Z,0.00
2019-05-19T00:20:07.569Z,0.00
2019-05-19T00:21:07.509Z,0.00
2019-05-19T00:22:07.497Z,0.00
2019-05-19T00:23:07.496Z,0.00
2019-05-19T00:24:07.485Z,0.00
2019-05-19T00:25:07.577Z,0.00
2019-05-19T00:26:07.464Z,0.00
2019-05-19T00:27:07.451Z,0.00
2019-05-19T00:28:07.437Z,0.00
2019-05-19T00:29:07.433Z,0.00
2019-05-19T00:30:07.449Z,0.00
2019-05-19T00:31:07.407Z,0.00
2019-05-19T00:32:07.407Z,0.00
2019-05-19T00:33:07.386Z,0.00
2019-05-19T00:34:07.369Z,0.00
2019-05-19T00:35:07.387Z,0.00
2019-05-19T00:36:07.354Z,0.00
2019-05-19T00:37:07.355Z,0.00
2019-05-19T00:38:07.326Z,0.00
2019-05-19T00:39:07.314Z,0.00
2019-05-19T00:40:07.380Z,0.00
2019-05-19T00:41:07.298Z,0.00
2019-05-19T00:42:07.308Z,0.00
2019-05-19T00:43:07.283Z,0.00
2019-05-19T00:44:07.263Z,0.00
2019-05-19T00:45:07.264Z,0.00
2019-05-19T00:46:07.239Z,0.00
2019-05-19T00:47:07.258Z,0.00
2019-05-19T00:48:07.236Z,0.00
2019-05-19T00:49:07.224Z,0.00
2019-05-19T00:50:07.225Z,0.00
2019-05-19T00:51:07.183Z,0.00
2019-05-19T00:52:07.172Z,0.00
2019-05-19T00:53:07.163Z,0.00
2019-05-19T00:54:07.168Z,0.00
2019-05-19T00:55:07.174Z,0.00
2019-05-19T00:56:07.132Z,0.00
2019-05-19T00:57:07.151Z,0.00
2019-05-19T00:58:07.117Z,0.00
2019-05-19T00:59:07.102Z,0.00
2019-05-19T01:00:07.107Z,0.00
2019-05-19T01:01:07.082Z,0.00
2019-05-19T01:02:07.089Z,0.00
2019-05-19T01:03:07.064Z,0.00
2019-05-19T01:04:07.058Z,0.00
2019-05-19T01:05:07.078Z,0.00
2019-05-19T01:06:07.036Z,0.00
2019-05-19T01:07:07.044Z,0.00
2019-05-19T01:08:07.007Z,0.00
2019-05-19T01:09:06.996Z,0.00
2019-05-19T01:10:07.012Z,0.00
2019-05-19T01:11:06.983Z,0.00
2019-05-19T01:12:06.986Z,0.00
2019-05-19T01:13:06.954Z,0.00
2019-05-19T01:14:16.257Z,0.00
2019-05-19T01:15:15.301Z,0.00
2019-05-19T01:16:15.818Z,0.00
2019-05-19T01:17:15.261Z,0.00
2019-05-19T01:18:15.288Z,0.00
2019-05-19T01:19:15.934Z,0.00
2019-05-19T01:20:15.249Z,0.00
2019-05-19T01:21:16.472Z,0.00
2019-05-19T01:22:15.451Z,0.00
2019-05-19T01:23:16.526Z,0.00
2019-05-19T01:24:18.068Z,0.00
2019-05-19T01:25:06.819Z,0.00
2019-05-19T01:26:06.824Z,0.00
2019-05-19T01:27:07.089Z,0.00
2019-05-19T01:28:06.819Z,0.00
2019-05-19T01:29:06.791Z,0.00
2019-05-19T01:30:06.804Z,0.00
2019-05-19T01:31:06.779Z,0.00
2019-05-19T01:32:06.745Z,0.00
2019-05-19T01:33:06.734Z,0.00
2019-05-19T01:34:06.728Z,0.00
2019-05-19T01:35:06.724Z,0.00
2019-05-19T01:36:06.739Z,0.00
2019-05-19T01:37:06.706Z,0.00
2019-05-19T01:38:06.679Z,0.00
2019-05-19T01:39:06.670Z,0.00
2019-05-19T01:40:06.673Z,0.00
2019-05-19T01:41:06.675Z,0.00
2019-05-19T01:42:06.638Z,0.00
2019-05-19T01:43:06.623Z,0.00
2019-05-19T01:44:06.627Z,0.00
2019-05-19T01:45:06.614Z,0.00
2019-05-19T01:46:06.613Z,0.00
2019-05-19T01:47:06.612Z,0.00
2019-05-19T01:48:06.589Z,0.00
2019-05-19T01:49:06.566Z,0.00
2019-05-19T01:50:17.723Z,0.00
2019-05-19T01:51:07.568Z,0.00
2019-05-19T01:52:06.535Z,0.00
2019-05-19T01:53:06.524Z,0.00
2019-05-19T01:54:06.510Z,0.00
2019-05-19T01:55:06.496Z,0.00
2019-05-19T01:56:06.511Z,0.00
2019-05-19T01:57:06.498Z,0.00
2019-05-19T01:58:06.479Z,0.00
2019-05-19T01:59:06.463Z,0.00
2019-05-19T02:00:06.441Z,0.00
2019-05-19T02:01:06.461Z,0.00
2019-05-19T02:02:06.425Z,0.00
2019-05-19T02:03:06.420Z,0.00
2019-05-19T02:04:06.416Z,0.00
2019-05-19T02:05:06.386Z,0.00
2019-05-19T02:06:06.412Z,0.00
2019-05-19T02:07:06.372Z,0.00
2019-05-19T02:08:06.357Z,0.00
2019-05-19T02:09:06.357Z,0.00
2019-05-19T02:10:06.335Z,0.00
2019-05-19T02:11:06.376Z,0.00
2019-05-19T02:12:06.321Z,0.00
2019-05-19T02:13:06.308Z,0.00
2019-05-19T02:14:06.294Z,0.00
2019-05-19T02:15:06.288Z,0.00
2019-05-19T02:16:06.299Z,0.00
2019-05-19T02:17:06.321Z,0.00
2019-05-19T02:18:06.251Z,0.00
2019-05-19T02:19:06.241Z,0.00
2019-05-19T02:20:06.234Z,0.00
2019-05-19T02:21:06.228Z,0.00
2019-05-19T02:22:06.230Z,0.00
2019-05-19T02:23:06.203Z,0.00
2019-05-19T02:24:06.186Z,0.00
2019-05-19T02:25:06.170Z,0.00
2019-05-19T02:26:06.168Z,0.00
2019-05-19T02:27:06.174Z,0.00
2019-05-19T02:28:06.152Z,0.00
2019-05-19T02:29:06.128Z,0.00
2019-05-19T02:30:06.123Z,0.00
2019-05-19T02:31:06.111Z,4.00
2019-05-19T02:32:06.127Z,4.00
2019-05-19T02:33:06.089Z,4.00
2019-05-19T02:34:06.075Z,0.00
2019-05-19T02:35:06.063Z,4.00
2019-05-19T02:36:06.055Z,4.00
2019-05-19T02:37:06.049Z,4.00
2019-05-19T02:38:06.061Z,8.00
2019-05-19T02:39:06.032Z,4.00
2019-05-19T02:40:06.008Z,8.00
2019-05-19T02:41:06.007Z,8.00
2019-05-19T02:42:06.021Z,12.00
2019-05-19T02:43:06.015Z,8.00
2019-05-19T02:44:05.971Z,12.00
2019-05-19T02:45:05.972Z,16.00
2019-05-19T02:46:05.945Z,16.00
2019-05-19T02:47:05.949Z,16.00
2019-05-19T02:48:05.923Z,20.00
2019-05-19T02:49:05.924Z,24.00
2019-05-19T02:50:05.911Z,24.00
2019-05-19T02:51:05.906Z,28.00
2019-05-19T02:52:05.910Z,32.00
2019-05-19T02:53:05.877Z,36.00
2019-05-19T02:54:05.868Z,40.00
2019-05-19T02:55:05.880Z,48.00
2019-05-19T02:56:05.858Z,52.00
2019-05-19T02:57:05.846Z,60.00
2019-05-19T02:58:05.811Z,68.00
2019-05-19T02:59:05.803Z,76.00
2019-05-19T03:00:05.794Z,88.00
2019-05-19T03:01:05.798Z,96.00
2019-05-19T03:02:05.806Z,104.00
2019-05-19T03:03:05.770Z,112.00
2019-05-19T03:04:05.754Z,124.00
2019-05-19T03:05:05.741Z,136.00
2019-05-19T03:06:05.734Z,148.00
2019-05-19T03:07:05.906Z,164.00
2019-05-19T03:08:05.711Z,176.00
2019-05-19T03:09:05.711Z,192.00
2019-05-19T03:10:05.692Z,204.00
2019-05-19T03:11:05.678Z,220.00
2019-05-19T03:12:05.685Z,236.00
2019-05-19T03:13:05.659Z,252.00
2019-05-19T03:14:05.647Z,264.00
2019-05-19T03:15:05.647Z,280.00
2019-05-19T03:16:05.634Z,296.00
2019-05-19T03:17:05.641Z,316.00
2019-05-19T03:18:05.637Z,336.00
2019-05-19T03:19:05.590Z,356.00
2019-05-19T03:20:05.595Z,372.00
2019-05-19T03:21:10.797Z,388.00
2019-05-19T03:22:06.566Z,408.00
2019-05-19T03:23:05.571Z,428.00
2019-05-19T03:24:05.539Z,448.00
2019-05-19T03:25:05.526Z,468.00
2019-05-19T03:26:05.521Z,492.00
2019-05-19T03:27:05.525Z,520.00
2019-05-19T03:28:05.518Z,536.00
2019-05-19T03:29:05.483Z,556.00
2019-05-19T03:30:05.495Z,568.00
2019-05-19T03:31:05.493Z,584.00
2019-05-19T03:32:11.807Z,600.00
2019-05-19T03:33:06.494Z,620.00
2019-05-19T03:34:05.437Z,636.00
2019-05-19T03:35:05.462Z,652.00
2019-05-19T03:36:05.418Z,676.00
2019-05-19T03:37:05.399Z,692.00
2019-05-19T03:38:05.407Z,708.00
2019-05-19T03:39:05.373Z,724.00
2019-05-19T03:40:05.367Z,740.00
2019-05-19T03:41:05.370Z,756.00
2019-05-19T03:42:05.367Z,772.00
2019-05-19T03:43:05.360Z,792.00
2019-05-19T03:44:05.320Z,812.00
2019-05-19T03:45:05.306Z,828.00
2019-05-19T03:46:05.300Z,836.00
2019-05-19T03:47:05.285Z,852.00
2019-05-19T03:48:05.311Z,868.00
2019-05-19T03:49:05.282Z,884.00
2019-05-19T03:50:05.266Z,904.00
2019-05-19T03:51:05.242Z,936.00
2019-05-19T03:52:05.240Z,968.00
2019-05-19T03:53:05.263Z,996.00
2019-05-19T03:54:05.211Z,1016.00
2019-05-19T03:55:05.220Z,1036.00
2019-05-19T03:56:05.204Z,1056.00
2019-05-19T03:57:05.183Z,1080.00
2019-05-19T03:58:05.196Z,1116.00
2019-05-19T03:59:05.166Z,1156.00
2019-05-19T04:00:05.145Z,1184.00
2019-05-19T04:01:05.133Z,1208.00
2019-05-19T04:02:05.151Z,1244.00
2019-05-19T04:03:05.122Z,1276.00
2019-05-19T04:04:05.130Z,1308.00
2019-05-19T04:05:05.100Z,1368.00
2019-05-19T04:06:05.084Z,1416.00
2019-05-19T04:07:05.088Z,1436.00
2019-05-19T04:08:05.058Z,1460.00
2019-05-19T04:09:05.104Z,1480.00
2019-05-19T04:10:05.052Z,1492.00
2019-05-19T04:11:05.027Z,1524.00
2019-05-19T04:12:05.028Z,1584.00
2019-05-19T04:13:05.039Z,1692.00
2019-05-19T04:14:05.025Z,1772.00
2019-05-19T04:15:05.046Z,1852.00
2019-05-19T04:16:04.973Z,1920.00
2019-05-19T04:17:04.982Z,1936.00
2019-05-19T04:18:04.956Z,1924.00
2019-05-19T04:19:04.966Z,1924.00
2019-05-19T04:20:04.935Z,1964.00
2019-05-19T04:21:04.919Z,2000.00
2019-05-19T04:22:04.924Z,2056.00
2019-05-19T04:23:04.898Z,2080.00
2019-05-19T04:24:04.908Z,2128.00
2019-05-19T04:25:04.887Z,2156.00
2019-05-19T04:26:04.868Z,2160.00
2019-05-19T04:27:04.909Z,2184.00
2019-05-19T04:28:04.856Z,2196.00
2019-05-19T04:29:04.851Z,2228.00
2019-05-19T04:30:04.831Z,2228.00
2019-05-19T04:31:04.814Z,2232.00
2019-05-19T04:32:04.806Z,2252.00
2019-05-19T04:33:04.815Z,2276.00
2019-05-19T04:34:04.802Z,2292.00
2019-05-19T04:35:04.767Z,2292.00
2019-05-19T04:36:04.758Z,2280.00
2019-05-19T04:37:04.749Z,2296.00
2019-05-19T04:38:04.744Z,2332.00
2019-05-19T04:39:04.755Z,2404.00
2019-05-19T04:40:04.716Z,2448.00
2019-05-19T04:41:04.704Z,2464.00
2019-05-19T04:42:04.691Z,2448.00
2019-05-19T04:43:04.702Z,2444.00
2019-05-19T04:44:04.704Z,2480.00
2019-05-19T04:45:04.669Z,2512.00
2019-05-19T04:46:04.656Z,2544.00
2019-05-19T04:47:04.662Z,2620.00
2019-05-19T04:48:08.678Z,2636.00
2019-05-19T04:49:04.652Z,2732.00
2019-05-19T04:50:04.606Z,2832.00
2019-05-19T04:51:04.601Z,2888.00
2019-05-19T04:52:07.079Z,2948.00
2019-05-19T04:53:04.582Z,3004.00
2019-05-19T04:54:04.660Z,3056.00
2019-05-19T04:55:04.571Z,3092.00
2019-05-19T04:56:04.541Z,3120.00
2019-05-19T04:57:04.538Z,3108.00
2019-05-19T04:58:04.541Z,3136.00
2019-05-19T04:59:04.537Z,3128.00
2019-05-19T05:00:04.507Z,3132.00
2019-05-19T05:01:04.500Z,3112.00
2019-05-19T05:02:04.477Z,3336.00
2019-05-19T05:03:04.473Z,3812.00
2019-05-19T05:04:04.489Z,4080.00
2019-05-19T05:05:04.452Z,3928.00
2019-05-19T05:06:04.449Z,4060.00
2019-05-19T05:07:04.436Z,3688.00
2019-05-19T05:08:04.422Z,3504.00
2019-05-19T05:09:04.466Z,3524.00
2019-05-19T05:10:04.391Z,3552.00
2019-05-19T05:11:04.383Z,3988.00
2019-05-19T05:12:04.369Z,3944.00
2019-05-19T05:13:04.362Z,3796.00
2019-05-19T05:14:04.365Z,3756.00
2019-05-19T05:15:04.345Z,3692.00
2019-05-19T05:16:04.335Z,3716.00
2019-05-19T05:17:04.320Z,3788.00
2019-05-19T05:18:04.317Z,3912.00
2019-05-19T05:19:04.316Z,4020.00
2019-05-19T05:20:04.297Z,4136.00
2019-05-19T05:21:04.278Z,4260.00
2019-05-19T05:22:04.284Z,4364.00
2019-05-19T05:23:04.251Z,4476.00
2019-05-19T05:24:04.262Z,4504.00
2019-05-19T05:25:04.274Z,4528.00
2019-05-19T05:26:04.221Z,4556.00
2019-05-19T05:27:04.215Z,4560.00
2019-05-19T05:28:04.217Z,4536.00
2019-05-19T05:29:04.213Z,4548.00
2019-05-19T05:30:04.203Z,4504.00
2019-05-19T05:31:04.166Z,4524.00
2019-05-19T05:32:04.160Z,4504.00
2019-05-19T05:33:04.150Z,4376.00
2019-05-19T05:34:04.170Z,4252.00
2019-05-19T05:35:04.157Z,4132.00
2019-05-19T05:36:04.157Z,4032.00
2019-05-19T05:37:04.110Z,3988.00
2019-05-19T05:38:04.131Z,3856.00
2019-05-19T05:39:04.106Z,3668.00
2019-05-19T05:40:04.091Z,3544.00
2019-05-19T05:41:04.074Z,3452.00
2019-05-19T05:42:04.053Z,3308.00
2019-05-19T05:43:04.038Z,3276.00
2019-05-19T05:44:04.056Z,3272.00
2019-05-19T05:45:04.032Z,3236.00
2019-05-19T05:46:04.020Z,3216.00
2019-05-19T05:47:04.014Z,3228.00
2019-05-19T05:48:03.987Z,3300.00
2019-05-19T05:49:04.002Z,3412.00
2019-05-19T05:50:03.993Z,3616.00
2019-05-19T05:51:03.980Z,3800.00
2019-05-19T05:52:04.001Z,3948.00
2019-05-19T05:53:03.941Z,3964.00
2019-05-19T05:54:03.923Z,3976.00
2019-05-19T05:55:03.926Z,4020.00
2019-05-19T05:56:03.906Z,3932.00
2019-05-19T05:57:03.895Z,3892.00
2019-05-19T05:58:03.891Z,3736.00
2019-05-19T05:59:03.864Z,3600.00
2019-05-19T06:00:03.904Z,3508.00
2019-05-19T06:01:03.853Z,3484.00
2019-05-19T06:02:12.681Z,3600.00
2019-05-19T06:03:03.831Z,3608.00
2019-05-19T06:04:03.837Z,3612.00
2019-05-19T06:05:03.825Z,3592.00
2019-05-19T06:06:03.798Z,3520.00
2019-05-19T06:07:03.808Z,3460.00
2019-05-19T06:08:03.787Z,3396.00
2019-05-19T06:09:03.775Z,3352.00
2019-05-19T06:10:03.797Z,3304.00
2019-05-19T06:11:03.739Z,3244.00
2019-05-19T06:12:03.754Z,3184.00
2019-05-19T06:13:03.815Z,3132.00
2019-05-19T06:14:03.714Z,3068.00
2019-05-19T06:15:03.713Z,3012.00
2019-05-19T06:16:03.696Z,2984.00
2019-05-19T06:17:03.678Z,2976.00
2019-05-19T06:18:03.663Z,2948.00
2019-05-19T06:19:03.651Z,2920.00
2019-05-19T06:20:04.449Z,2920.00
2019-05-19T06:21:03.632Z,2892.00
2019-05-19T06:22:03.624Z,2916.00
2019-05-19T06:23:03.611Z,2916.00
2019-05-19T06:24:03.601Z,2824.00
2019-05-19T06:25:03.620Z,2852.00
2019-05-19T06:26:03.586Z,2832.00
2019-05-19T06:27:03.583Z,2800.00
2019-05-19T06:28:03.557Z,2772.00
2019-05-19T06:29:03.549Z,2724.00
2019-05-19T06:30:03.551Z,2752.00
2019-05-19T06:31:03.542Z,2780.00
2019-05-19T06:32:03.523Z,2744.00
2019-05-19T06:33:03.521Z,2576.00
2019-05-19T06:34:03.497Z,2620.00
2019-05-19T06:35:03.528Z,2700.00
2019-05-19T06:36:03.714Z,2748.00
2019-05-19T06:37:03.458Z,2740.00
2019-05-19T06:38:03.612Z,2812.00
2019-05-19T06:39:03.456Z,2796.00
2019-05-19T06:40:03.465Z,2800.00
2019-05-19T06:41:03.424Z,2780.00
2019-05-19T06:42:03.422Z,2816.00
2019-05-19T06:43:03.400Z,2820.00
2019-05-19T06:44:03.597Z,2816.00
2019-05-19T06:45:03.411Z,2816.00
2019-05-19T06:46:03.386Z,2820.00
2019-05-19T06:47:03.361Z,2820.00
2019-05-19T06:48:03.349Z,2824.00
2019-05-19T06:49:03.331Z,2812.00
2019-05-19T06:50:03.384Z,2788.00
2019-05-19T06:51:03.316Z,2792.00
2019-05-19T06:52:03.310Z,2808.00
2019-05-19T06:53:13.713Z,2808.00
2019-05-19T06:54:04.285Z,2800.00
2019-05-19T06:55:03.297Z,2800.00
2019-05-19T06:56:03.266Z,2808.00
2019-05-19T06:57:03.257Z,2812.00
2019-05-19T06:58:03.238Z,2832.00
2019-05-19T06:59:03.230Z,2848.00
2019-05-19T07:00:03.264Z,2876.00
2019-05-19T07:01:03.212Z,2928.00
2019-05-19T07:02:03.204Z,2988.00
2019-05-19T07:03:03.184Z,3068.00
2019-05-19T07:04:03.191Z,3168.00
2019-05-19T07:05:03.166Z,3284.00
2019-05-19T07:06:03.169Z,3380.00
2019-05-19T07:07:03.182Z,3432.00
2019-05-19T07:08:03.142Z,3464.00
2019-05-19T07:09:03.121Z,3520.00
2019-05-19T07:10:04.029Z,3588.00
2019-05-19T07:11:03.375Z,3620.00
2019-05-19T07:12:03.106Z,3580.00
2019-05-19T07:13:03.104Z,3516.00
2019-05-19T07:14:03.202Z,3448.00
2019-05-19T07:15:03.101Z,3400.00
2019-05-19T07:16:04.538Z,3348.00
2019-05-19T07:17:03.046Z,3308.00
2019-05-19T07:18:03.041Z,3304.00
2019-05-19T07:19:03.055Z,3316.00
2019-05-19T07:20:03.029Z,3328.00
2019-05-19T07:21:03.014Z,3312.00
2019-05-19T07:22:02.995Z,3272.00
2019-05-19T07:23:02.979Z,3220.00
2019-05-19T07:24:02.969Z,3184.00
2019-05-19T07:25:02.975Z,3168.00
2019-05-19T07:26:02.969Z,3196.00
2019-05-19T07:27:02.942Z,3260.00
2019-05-19T07:28:02.926Z,3304.00
2019-05-19T07:29:02.914Z,3336.00
2019-05-19T07:30:03.088Z,3364.00
2019-05-19T07:31:02.911Z,3412.00
2019-05-19T07:32:02.887Z,3444.00
2019-05-19T07:33:02.873Z,3464.00
2019-05-19T07:34:02.850Z,3512.00
2019-05-19T07:35:02.841Z,3604.00
2019-05-19T07:36:02.861Z,3632.00
2019-05-19T07:37:02.827Z,3604.00
2019-05-19T07:38:02.820Z,3580.00
2019-05-19T07:39:02.863Z,3608.00
2019-05-19T07:40:02.984Z,3712.00
2019-05-19T07:41:02.795Z,3852.00
2019-05-19T07:42:02.947Z,3884.00
2019-05-19T07:43:02.898Z,3776.00
2019-05-19T07:44:03.383Z,3620.00
2019-05-19T07:45:02.765Z,3188.00
2019-05-19T07:46:02.772Z,3020.00
2019-05-19T07:47:02.739Z,3084.00
2019-05-19T07:48:02.710Z,3240.00
2019-05-19T07:49:02.695Z,3500.00
2019-05-19T07:50:02.738Z,3396.00
2019-05-19T07:51:02.810Z,3320.00
2019-05-19T07:52:02.851Z,3288.00
2019-05-19T07:53:02.743Z,3268.00
2019-05-19T07:54:02.658Z,3264.00
2019-05-19T07:55:02.637Z,3256.00
2019-05-19T07:56:02.629Z,3244.00
2019-05-19T07:57:02.607Z,3248.00
2019-05-19T07:58:02.653Z,3256.00
2019-05-19T07:59:02.601Z,3272.00
2019-05-19T08:00:02.640Z,3304.00
2019-05-19T08:01:02.577Z,3336.00
2019-05-19T08:02:02.575Z,3348.00
2019-05-19T08:03:02.686Z,3352.00
2019-05-19T08:04:02.541Z,3352.00
2019-05-19T08:05:03.296Z,3360.00
2019-05-19T08:06:02.789Z,3380.00
2019-05-19T08:07:02.504Z,3380.00
2019-05-19T08:08:02.505Z,3400.00
2019-05-19T08:09:02.479Z,3344.00
2019-05-19T08:10:02.517Z,3384.00
2019-05-19T08:11:02.495Z,3412.00
2019-05-19T08:12:02.477Z,3436.00
2019-05-19T08:13:02.451Z,3464.00
2019-05-19T08:14:02.498Z,3500.00
2019-05-19T08:15:02.474Z,3500.00
2019-05-19T08:16:02.420Z,3536.00
2019-05-19T08:17:02.434Z,3568.00
2019-05-19T08:18:02.394Z,3584.00
2019-05-19T08:19:02.392Z,3620.00
2019-05-19T08:20:02.379Z,3648.00
2019-05-19T08:21:02.354Z,3688.00
2019-05-19T08:22:02.431Z,3712.00
2019-05-19T08:23:02.370Z,3740.00
2019-05-19T08:24:02.402Z,3772.00
2019-05-19T08:25:03.304Z,3808.00
2019-05-19T08:26:02.317Z,3848.00
2019-05-19T08:27:02.671Z,3864.00
2019-05-19T08:28:08.536Z,3836.00
2019-05-19T08:29:03.388Z,3924.00
2019-05-19T08:30:02.943Z,4008.00
2019-05-19T08:31:02.249Z,4112.00
2019-05-19T08:32:02.265Z,4136.00
2019-05-19T08:33:02.222Z,4072.00
2019-05-19T08:34:02.361Z,4024.00
2019-05-19T08:35:04.393Z,3988.00
2019-05-19T08:36:02.447Z,3988.00
2019-05-19T08:37:02.223Z,3964.00
2019-05-19T08:38:02.193Z,3932.00
2019-05-19T08:39:02.157Z,3884.00
2019-05-19T08:40:02.182Z,3888.00
2019-05-19T08:41:02.154Z,3876.00
2019-05-19T08:42:02.126Z,3876.00
2019-05-19T08:43:02.153Z,3884.00
2019-05-19T08:44:02.123Z,3844.00
2019-05-19T08:45:02.108Z,3872.00
2019-05-19T08:46:02.107Z,3900.00
2019-05-19T08:47:02.068Z,3932.00
2019-05-19T08:48:02.058Z,3940.00
2019-05-19T08:49:02.075Z,3936.00
2019-05-19T08:50:02.131Z,3912.00
2019-05-19T08:51:02.039Z,3908.00
2019-05-19T08:52:02.063Z,3932.00
2019-05-19T08:53:02.008Z,3956.00
2019-05-19T08:54:13.876Z,3956.00
2019-05-19T08:55:03.033Z,3972.00
2019-05-19T08:56:02.008Z,4016.00
2019-05-19T08:57:01.995Z,4020.00
2019-05-19T08:58:01.961Z,4056.00
2019-05-19T08:59:01.941Z,4044.00
2019-05-19T09:00:02.027Z,4080.00
2019-05-19T09:01:01.945Z,4100.00
2019-05-19T09:02:01.987Z,4136.00
2019-05-19T09:03:02.084Z,4156.00
2019-05-19T09:04:01.896Z,4088.00
2019-05-19T09:05:01.875Z,4108.00
2019-05-19T09:06:01.926Z,4164.00
2019-05-19T09:07:01.856Z,4148.00
2019-05-19T09:08:01.853Z,4172.00
2019-05-19T09:09:01.844Z,4180.00
2019-05-19T09:10:01.829Z,4168.00
2019-05-19T09:11:01.997Z,4144.00
2019-05-19T09:12:01.808Z,4152.00
2019-05-19T09:13:01.824Z,4220.00
2019-05-19T09:14:01.795Z,4296.00
2019-05-19T09:15:01.790Z,4332.00
2019-05-19T09:16:01.830Z,4404.00
2019-05-19T09:17:02.036Z,4420.00
2019-05-19T09:18:01.780Z,4444.00
2019-05-19T09:19:01.748Z,4456.00
2019-05-19T09:20:01.835Z,4484.00
2019-05-19T09:22:02.876Z,4500.00
2019-05-19T09:23:01.923Z,4484.00
2019-05-19T09:24:01.701Z,4508.00
2019-05-19T09:25:02.128Z,4540.00
2019-05-19T09:26:01.673Z,4568.00
2019-05-19T09:27:01.901Z,4636.00
2019-05-19T09:28:01.633Z,4656.00
2019-05-19T09:29:01.923Z,4672.00
2019-05-19T09:30:01.619Z,4676.00
2019-05-19T09:31:01.930Z,4728.00
2019-05-19T09:32:01.738Z,4736.00
2019-05-19T09:33:01.658Z,4744.00
2019-05-19T09:34:01.574Z,4784.00
2019-05-19T09:35:01.571Z,4792.00
2019-05-19T09:36:01.572Z,4792.00
2019-05-19T09:37:01.552Z,4856.00
2019-05-19T09:38:01.585Z,4888.00
2019-05-19T09:39:01.524Z,4920.00
2019-05-19T09:40:01.507Z,4976.00
2019-05-19T09:41:01.540Z,5020.00
2019-05-19T09:42:01.527Z,5064.00
2019-05-19T09:43:01.489Z,5120.00
2019-05-19T09:44:01.465Z,5172.00
2019-05-19T09:45:01.457Z,5168.00
2019-05-19T09:46:01.470Z,5196.00
2019-05-19T09:47:01.443Z,5224.00
2019-05-19T09:48:01.429Z,5260.00
2019-05-19T09:49:01.430Z,5324.00
2019-05-19T09:50:01.422Z,5400.00
2019-05-19T09:51:01.414Z,5460.00
2019-05-19T09:52:01.373Z,5508.00
2019-05-19T09:53:01.367Z,5540.00
2019-05-19T09:54:01.363Z,5612.00
2019-05-19T09:55:01.370Z,5672.00
2019-05-19T09:56:01.362Z,5640.00
2019-05-19T09:57:01.344Z,5644.00
2019-05-19T09:58:01.312Z,5684.00
2019-05-19T09:59:01.309Z,5716.00
2019-05-19T10:00:01.301Z,5708.00
2019-05-19T10:01:01.314Z,5788.00
2019-05-19T10:02:01.280Z,5884.00
2019-05-19T10:03:01.266Z,5956.00
2019-05-19T10:04:01.253Z,5952.00
2019-05-19T10:05:01.274Z,5940.00
2019-05-19T10:06:01.273Z,5980.00
2019-05-19T10:07:01.728Z,6100.00
2019-05-19T10:08:01.208Z,6268.00
2019-05-19T10:09:01.197Z,6336.00
2019-05-19T10:10:01.222Z,6416.00
2019-05-19T10:11:01.207Z,6532.00
2019-05-19T10:12:01.198Z,6692.00
2019-05-19T10:13:01.191Z,6740.00
2019-05-19T10:14:01.147Z,6852.00
2019-05-19T10:15:01.378Z,6868.00
2019-05-19T10:16:01.158Z,6904.00
2019-05-19T10:17:01.392Z,6968.00
2019-05-19T10:18:01.151Z,6948.00
2019-05-19T10:19:01.094Z,7004.00
2019-05-19T10:20:01.081Z,7072.00
2019-05-19T10:21:01.102Z,7008.00
2019-05-19T10:22:01.064Z,7220.00
2019-05-19T10:23:01.075Z,7440.00
2019-05-19T10:24:01.055Z,7468.00
2019-05-19T10:25:20.263Z,7676.00
2019-05-19T10:26:02.053Z,7692.00
2019-05-19T10:27:01.011Z,7444.00
2019-05-19T10:28:01.022Z,7256.00
2019-05-19T10:29:01.035Z,7204.00
2019-05-19T10:30:01.740Z,7224.00
2019-05-19T10:31:00.985Z,7180.00
2019-05-19T10:32:00.971Z,6844.00
2019-05-19T10:33:00.950Z,7464.00
2019-05-19T10:34:00.961Z,8008.00
2019-05-19T10:35:00.927Z,7684.00
2019-05-19T10:36:00.935Z,7416.00
2019-05-19T10:37:00.940Z,7352.00
2019-05-19T10:38:00.896Z,7312.00
2019-05-19T10:39:00.891Z,7524.00
2019-05-19T10:40:00.888Z,8016.00
2019-05-19T10:41:00.869Z,8512.00
2019-05-19T10:42:00.893Z,8644.00
2019-05-19T10:43:00.842Z,8208.00
2019-05-19T10:44:00.961Z,7912.00
2019-05-19T10:45:00.891Z,8164.00
2019-05-19T10:46:00.822Z,8372.00
2019-05-19T10:47:01.351Z,8116.00
2019-05-19T10:48:00.819Z,7992.00
2019-05-19T10:49:00.780Z,7820.00
2019-05-19T10:50:00.775Z,7492.00
2019-05-19T10:51:00.759Z,8108.00
2019-05-19T10:52:00.766Z,9476.00
2019-05-19T10:53:00.769Z,9904.00
2019-05-19T10:54:00.740Z,9284.00
2019-05-19T10:55:00.720Z,9000.00
2019-05-19T10:56:00.714Z,9324.00
2019-05-19T10:57:00.733Z,10184.00
2019-05-19T10:58:00.696Z,9952.00
2019-05-19T10:59:00.712Z,9668.00
2019-05-19T11:00:00.672Z,8432.00
2019-05-19T11:01:00.659Z,12136.00
2019-05-19T11:02:00.664Z,11752.00
2019-05-19T11:03:00.666Z,10784.00
2019-05-19T11:04:00.636Z,13592.00
2019-05-19T11:05:00.620Z,14140.00
2019-05-19T11:06:00.620Z,14472.00
2019-05-19T11:08:01.747Z,58176.00
2019-05-19T11:09:21.572Z,88512.00
2019-05-19T11:13:51.694Z,13640.00
2019-05-19T11:16:48.745Z,16648.00
2019-05-19T11:17:48.787Z,21440.00
2019-05-19T11:18:48.720Z,12736.00
2019-05-19T11:19:48.696Z,11668.00
2019-05-19T11:20:48.705Z,10344.00
2019-05-19T11:21:48.680Z,11900.00
2019-05-19T11:22:48.727Z,87616.00
2019-05-19T11:23:48.652Z,86048.00
2019-05-19T11:24:48.666Z,84352.00
2019-05-19T11:25:51.419Z,84608.00
2019-05-19T11:26:48.670Z,90144.00
2019-05-19T11:27:48.619Z,92704.00
2019-05-19T11:28:48.630Z,23392.00
2019-05-19T11:29:48.599Z,15136.00
2019-05-19T11:30:48.597Z,95808.00
2019-05-19T11:31:48.580Z,90304.00
2019-05-19T11:32:48.579Z,94976.00
2019-05-19T11:33:48.578Z,93088.00
2019-05-19T11:34:48.570Z,94816.00
2019-05-19T11:35:48.542Z,96576.00
2019-05-19T11:36:48.535Z,94752.00
2019-05-19T11:37:48.545Z,93440.00
2019-05-19T11:38:48.549Z,93216.00
2019-05-19T11:39:48.524Z,89952.00
2019-05-19T11:40:48.530Z,87904.00
2019-05-19T11:41:48.576Z,85984.00
2019-05-19T11:42:48.487Z,87392.00
2019-05-19T11:43:48.491Z,84288.00
2019-05-19T11:44:48.464Z,82816.00
2019-05-19T11:45:48.498Z,81376.00
2019-05-19T11:46:48.469Z,81760.00
2019-05-19T11:47:48.441Z,83232.00
2019-05-19T11:48:48.452Z,84160.00
2019-05-19T11:49:48.451Z,29024.00
2019-05-19T11:50:48.419Z,9892.00
2019-05-19T11:51:48.434Z,10040.00
2019-05-19T11:52:48.394Z,10752.00
2019-05-19T11:53:48.388Z,14304.00
2019-05-19T11:54:48.385Z,11176.00
2019-05-19T11:55:48.440Z,11228.00
2019-05-19T11:56:48.400Z,10988.00
2019-05-19T11:57:48.357Z,12780.00
2019-05-19T11:58:48.335Z,90944.00
2019-05-19T11:59:48.342Z,85536.00
2019-05-19T12:00:48.383Z,84704.00
2019-05-19T12:01:48.341Z,86944.00
2019-05-19T12:02:48.304Z,90048.00
2019-05-19T12:03:48.297Z,92448.00
2019-05-19T12:04:48.284Z,92608.00
2019-05-19T12:05:48.273Z,29984.00
2019-05-19T12:06:48.290Z,92352.00
2019-05-19T12:07:48.257Z,91616.00
2019-05-19T12:08:48.249Z,89536.00
2019-05-19T12:09:48.246Z,86624.00
2019-05-19T12:10:48.233Z,84832.00
2019-05-19T12:11:48.268Z,18720.00
2019-05-19T12:12:48.223Z,12860.00
2019-05-19T12:13:48.198Z,22560.00
2019-05-19T12:14:48.216Z,79072.00
2019-05-19T12:15:56.257Z,78368.00
2019-05-19T12:16:48.236Z,80768.00
2019-05-19T12:17:48.160Z,83648.00
2019-05-19T12:18:48.152Z,84000.00
2019-05-19T12:19:48.154Z,86528.00
2019-05-19T12:20:48.140Z,87072.00
2019-05-19T12:21:48.167Z,84928.00
2019-05-19T12:22:48.125Z,85952.00
2019-05-19T12:23:48.119Z,82496.00
2019-05-19T12:24:48.106Z,76448.00
2019-05-19T12:25:48.114Z,64832.00
2019-05-19T12:26:48.116Z,59296.00
2019-05-19T12:27:48.083Z,56032.00